Main page
METAR-TAF:

METAR-TAF

Airports :

Castres–Mazamet Airport

Castres, France

latitude: 43-33-25N, longitude: 2-17-21E, elevation: 239 m

Current weather observation

The report was made 29 minutes ago, at 17:30 UTC
Wind 4 kt from the West
Temperature 9°C
Humidity 87%
Pressure 1017 hPa
Visibility 10 km or more
light rain, drizzle

METAR: LFCK 271730Z AUTO 26004KT 9999 -RADZ OVC042/// ///TCU 09/07 Q1017 BECMG NSC

Time: 18:59 (17:59 UTC)

Forecast

The report was made 59 minutes ago, at 17:00 UTC
Forecast valid from 27 at 18 UTC to 28 at 03 UTC
Wind 5 kt from the Southeast
Visibility 10 km or more
no clouds below 1500 m and no cumulonimbus

TAF: LFCK 271700Z 2718/2803 13005KT CAVOK

Weather observations and forecasts of more than 4000 airports (METAR and TAF reports).

The available stations are represented by yellow and red dots on the map.

Hover mouse over dot to see the name of the station.

Then click to see weather observations and forecasts.

To change the map : click on the green buttons with a black cross to zoom in, on the green button with a dash to zoom out, or on the green arrows for adjacent maps.


METAR-TAF: